Terminal Aerodrome Forecast
Issued by NWS

Home | Current Version | Previous Version | Text Only | Print | Product List | Glossary On
Versions: 1 2 3 4 5 6 7 8 9 10 11 12 13 14 15 16 17 18 19 20 21 22 23 24 25 26 27 28 29 30 31 32 33
000
FTUS45 KSLC 302122 AAB
TAFBCE
TAF AMD
KBCE 302122Z 3021/0118 27007KT P6SM -TSRA SCT070CB BKN110
      TEMPO 3021/3022 VRB15G30KT
     FM302230 27009KT P6SM VCTS SCT070CB BKN120
     FM010200 32008KT P6SM FEW100 BKN250
     FM010500 06006KT P6SM BKN250=

USA.gov is the U.S. government's official web portal to all federal, state and local government web resources and services.